KNGU

Norfolk NS (Chambers Field) Airport

Norfolk, Virginia, USA
METAR KNGU 181159Z 36016G22KT 10SM FEW040 SCT300 12/02 A3038 RMK AO2 SLP286 ACFT TRAILS ABV FL250 T01220022 10161 20122 51029
Observed Flight Rules
Oct-18 @ 11:59 UTC (24 minutes ago) Visual Flight Rules
Wind Visibility Clouds
360° at 16 knots
 Gusting to 22 knots
10 miles
  • Few at 4,000' AGL
  • Scattered at 30,000' AGL
Temperatures Readings
Current 12°C / 54°F
Dewpoint 2°C / 36°F
Humidity 51%
Altimeter 30.38" Hg
Pressure 1028.6 hPa
Elevation 5
METAR KNGU 181159Z 36016G22KT 10SM FEW040 SCT300 12/02 A3038 RMK AO2 SLP286 ACFT TRAILS ABV FL250 T01220022 10161 20122 51029
Observed Flight Rules
Oct-18 @ 11:59 UTC
(24 minutes ago)
VFR
Wind Visibility
360° at 16 knots
 Gusting to 22 knots
10 miles
Clouds
  • Few at 4,000' AGL
  • Scattered at 30,000' AGL
Temperature Dewpoint
12°C / 54°F 2°C / 36°F
Humidity Altimeter Pressure
51% 30.38" Hg 1028.6 hPa